Date,TemperatureHighF,TemperatureAvgF,TemperatureLowF,DewpointHighF,DewpointAvgF,DewpointLowF,HumidityHigh,HumidityAvg,HumidityLow,PressureMaxIn,PressureMinIn,WindSpeedMaxMPH,WindSpeedAvgMPH,GustSpeedMaxMPH,PrecipitationSumIn
2013-2-1,42.0,31.8,21.7,30.8,14.4,0.5,86,51,24,30.42,30.10,18,1,26,0.00
2013-2-2,41.7,28.2,17.6,32.3,21.4,4.2,98,79,22,30.42,30.17,6,0,0,0.02
2013-2-3,47.2,37.9,29.8,35.6,30.3,26.3,98,76,48,30.17,30.02,10,1,17,0.34
2013-2-4,49.4,36.8,26.1,32.4,26.6,19.4,88,69,38,30.20,30.07,5,0,0,0.00
2013-2-5,60.0,43.9,32.8,44.9,36.9,30.0,97,79,35,30.08,29.98,5,0,0,0.00
2013-2-6,62.6,47.8,35.9,41.2,32.4,23.3,98,61,25,30.21,30.07,5,0,0,0.00
2013-2-7,49.3,44.4,35.5,45.6,40.2,31.0,94,85,64,30.21,29.98,8,0,12,0.11
2013-2-8,52.8,45.4,36.7,47.3,41.1,30.8,98,85,58,30.19,29.94,8,0,0,0.03
2013-2-9,60.2,43.4,28.6,32.2,25.7,14.8,86,55,20,30.34,30.14,6,0,0,0.00
2013-2-10,54.0,44.3,34.2,47.2,35.7,25.0,98,74,34,30.40,30.17,10,0,15,0.93
2013-2-11,55.3,49.1,42.4,54.6,47.3,41.6,99,94,65,30.18,30.05,3,0,0,0.42
2013-2-12,57.5,46.5,40.8,46.2,36.1,19.3,97,72,24,30.13,29.90,5,0,0,0.16
2013-2-13,47.2,41.3,34.5,45.4,39.1,30.8,98,92,79,29.96,29.76,5,0,0,0.07
2013-2-14,55.2,41.1,30.6,34.8,31.3,26.8,95,71,35,30.11,29.96,9,1,16,0.00
2013-2-15,57.5,41.2,27.1,40.7,32.0,26.6,99,74,36,30.17,30.02,9,0,13,0.00
2013-2-16,39.6,33.5,25.2,32.0,21.3,11.5,82,61,38,30.15,29.96,15,1,16,0.00
2013-2-17,39.5,29.1,22.8,17.0,11.2,6.1,77,48,29,30.35,30.14,9,1,12,0.00
2013-2-18,53.4,37.2,20.6,29.8,22.7,16.5,90,60,33,30.44,30.23,6,0,0,0.00
2013-2-19,51.8,40.7,32.4,43.5,27.8,12.9,98,65,31,30.24,30.00,12,1,16,0.31
2013-2-20,51.5,39.0,30.6,18.8,7.5,-6.6,54,30,10,30.18,30.11,14,1,17,0.00
2013-2-21,61.0,42.6,26.1,41.6,22.6,12.1,96,52,20,30.25,30.04,5,0,0,0.43
2013-2-22,43.5,40.5,38.0,41.6,39.2,36.4,98,95,90,30.24,30.09,10,0,17,0.85
2013-2-23,50.5,45.3,41.0,48.6,44.5,40.5,99,97,92,30.10,29.87,1,0,0,0.60
2013-2-24,61.7,47.0,32.7,40.9,31.4,20.3,99,61,23,30.05,29.91,7,0,0,0.00
2013-2-25,51.4,42.0,31.5,38.0,30.1,23.2,95,65,42,30.12,29.91,10,1,13,0.04
2013-2-26,44.0,41.2,38.6,43.2,39.9,36.2,98,95,84,29.92,29.61,14,1,17,1.47
2013-2-27,54.3,43.5,37.1,38.8,34.5,31.4,94,72,44,29.91,29.77,8,1,0,0.02
2013-2-28,41.5,36.4,33.3,35.2,27.8,24.5,80,71,64,30.02,29.84,7,1,0,0.00